CheckWX is a tool to help pilots better visualize weather data.  It is not intended as a substitute for an official pre-flight weather briefing.

15:32:00 UTC

EGJB METAR
Guernsey Airport
Saint Peter Port, Guernsey
Current

12 mins ago

EGJB 291520Z 23012KT 9999 FEW018 10/07 Q1014
Observed
Jan-29 @ 15:20 UTC
Wind
  • 230° at 12 KTS
Visibility
10,000+ meters
Flight Rules
VFR
Cloud Levels
  • Few at 1,800' AGL
Temperature
10°C / 50°F
Dewpoint
C / 45°F
Humidity
82%
Altimeter
29.94" Hg
Pressure
1013.92 hPa
Previous

42 mins ago

EGJB 291450Z 23013KT 9999 FEW018 10/07 Q1014
Observed
Jan-29 @ 14:50 UTC
Wind
  • 230° at 13 KTS
Visibility
10,000+ meters
Flight Rules
VFR
Cloud Levels
  • Few at 1,800' AGL
Temperature
10°C / 50°F
Dewpoint
C / 45°F
Humidity
82%
Altimeter
29.94" Hg
Pressure
1013.92 hPa
Previous

1 hour ago

EGJB 291420Z 24013KT 9999 FEW018 10/06 Q1014
Observed
Jan-29 @ 14:20 UTC
Wind
  • 240° at 13 KTS
Visibility
10,000+ meters
Flight Rules
VFR
Cloud Levels
  • Few at 1,800' AGL
Temperature
10°C / 50°F
Dewpoint
C / 43°F
Humidity
76%
Altimeter
29.94" Hg
Pressure
1013.92 hPa